Time;durP1;ratioP1;P1;durP2;ratioP2;P2;SDS_P1;SDS_P2;PMS_P1;PMS_P2;Temp;Humidity;BMP_temperature;BMP_pressure;BME280_temperature;BME280_humidity;BME280_pressure;Samples;Min_cycle;Max_cycle;Signal;HPM_P1;HPM_P2
2022/06/04 00:01:47;;;;;;;13.18;9.23;;;;;;;23.21;59.88;101631.19;4954123;29;20413;-88
2022/06/04 00:04:13;;;;;;;15.93;9.25;;;;;;;23.23;59.81;101632.72;4954409;29;20036;-88
2022/06/04 00:06:38;;;;;;;12.43;8.70;;;;;;;23.28;59.62;101642.84;4938519;29;20035;-87
2022/06/04 00:09:05;;;;;;;14.63;9.60;;;;;;;23.17;59.91;101636.72;4938372;29;20548;-89
2022/06/04 00:16:59;;;;;;;15.27;9.27;;;;;;;23.02;61.03;101637.22;4940746;29;20587;-87
2022/06/04 00:19:25;;;;;;;16.73;10.13;;;;;;;22.94;60.99;101624.66;4954043;29;20057;-88
2022/06/04 00:21:51;;;;;;;12.95;9.40;;;;;;;23.00;61.00;101632.03;4953826;29;20489;-87
2022/06/04 00:24:16;;;;;;;12.90;9.65;;;;;;;22.80;60.97;101601.22;4938072;29;20031;-88
2022/06/04 00:26:42;;;;;;;13.32;9.93;;;;;;;22.81;61.27;101618.69;4953870;29;20496;-88
2022/06/04 00:29:09;;;;;;;14.63;10.07;;;;;;;22.70;61.49;101618.78;4921818;29;20038;-88
2022/06/04 00:31:36;;;;;;;15.88;10.05;;;;;;;22.45;61.75;101583.94;4922199;29;20481;-88
2022/06/04 00:34:03;;;;;;;14.07;10.27;;;;;;;22.60;62.12;101622.19;4938089;29;20023;-87
2022/06/04 00:36:28;;;;;;;13.48;9.70;;;;;;;22.56;62.23;101615.50;4922116;29;20023;-87
2022/06/04 00:38:53;;;;;;;16.17;10.13;;;;;;;22.65;62.18;101623.63;4921922;29;20038;-87
2022/06/04 00:41:37;;;;;;;16.48;9.88;;;;;;;22.46;62.53;101588.25;4953331;28;20055;-89
2022/06/04 00:44:11;;;;;;;14.80;10.23;;;;;;;22.54;62.18;101606.91;4953499;29;20031;-88
2022/06/04 00:46:39;;;;;;;14.77;10.05;;;;;;;22.60;62.33;101630.09;4938124;29;20175;-87
2022/06/04 00:49:05;;;;;;;14.13;10.10;;;;;;;22.53;62.67;101633.41;4953330;29;20035;-87
2022/06/04 00:51:30;;;;;;;13.55;10.30;;;;;;;22.48;63.25;101631.13;4921757;29;20390;-87
2022/06/04 00:53:56;;;;;;;14.38;9.98;;;;;;;22.52;62.76;101637.84;4937569;29;20485;-87
2022/06/04 00:56:27;;;;;;;12.55;9.98;;;;;;;22.48;62.93;101644.31;4921589;29;20094;-88
2022/06/04 00:59:04;;;;;;;15.82;10.55;;;;;;;22.44;62.98;101647.34;4953112;28;20465;-88
2022/06/04 01:01:46;;;;;;;16.42;10.55;;;;;;;22.25;63.40;101648.03;4937349;29;20082;-87
2022/06/04 01:04:48;;;;;;;14.18;10.32;;;;;;;22.36;63.52;101655.88;4923379;29;20031;-88
2022/06/04 01:07:49;;;;;;;16.58;11.20;;;;;;;22.35;63.57;101654.22;4954331;28;20031;-88
2022/06/04 01:10:39;;;;;;;16.95;11.63;;;;;;;22.30;63.23;101656.38;4954353;28;20026;-89
2022/06/04 01:13:29;;;;;;;16.30;11.75;;;;;;;22.26;63.62;101647.06;4936803;29;20082;-87
2022/06/04 01:16:06;;;;;;;18.50;12.43;;;;;;;22.22;63.65;101638.59;4953969;28;20035;-87
2022/06/04 01:18:45;;;;;;;17.35;11.93;;;;;;;22.23;63.71;101632.34;4937886;29;20488;-87
2022/06/04 01:21:24;;;;;;;16.70;12.63;;;;;;;22.12;63.74;101615.72;4936952;29;20027;-88
2022/06/04 01:24:23;;;;;;;19.35;13.27;;;;;;;22.14;63.66;101624.34;4952877;29;20166;-87
2022/06/04 01:27:01;;;;;;;19.85;13.13;;;;;;;21.96;64.47;101616.94;4952523;29;20027;-87
2022/06/04 01:29:49;;;;;;;17.35;14.02;;;;;;;21.94;64.39;101613.59;4952520;29;20031;-87
2022/06/04 01:32:19;;;;;;;17.23;13.45;;;;;;;21.89;64.77;101628.09;4952962;29;20031;-87
2022/06/04 01:35:02;;;;;;;19.98;14.00;;;;;;;21.76;64.94;101620.34;4952761;29;20034;-89
2022/06/04 01:37:59;;;;;;;17.65;14.55;;;;;;;21.69;65.36;101630.53;4938086;29;20031;-88
2022/06/04 01:43:15;;;;;;;19.50;14.13;;;;;;;21.48;65.26;101613.81;4939263;29;20080;-88
2022/06/04 01:45:41;;;;;;;17.85;13.93;;;;;;;21.56;65.35;101637.75;4936833;29;20047;-88
2022/06/04 01:48:07;;;;;;;19.25;14.20;;;;;;;21.46;65.46;101634.16;4936220;29;20051;-87
2022/06/04 01:50:35;;;;;;;17.77;13.60;;;;;;;21.40;65.76;101640.75;4920678;29;20039;-88
2022/06/04 01:53:01;;;;;;;21.90;14.30;;;;;;;21.18;66.23;101622.28;4935344;29;20063;-88
2022/06/04 01:55:49;;;;;;;19.17;13.50;;;;;;;21.42;65.84;101654.63;4935979;29;20058;-87
2022/06/04 01:58:24;;;;;;;16.77;13.93;;;;;;;21.21;66.43;101637.84;4948587;29;20500;-89
2022/06/04 02:01:05;;;;;;;16.75;12.90;;;;;;;21.28;66.53;101657.50;4920772;29;20023;-88
2022/06/04 02:03:35;;;;;;;17.35;13.00;;;;;;;21.35;66.12;101663.97;4921068;29;20122;-88
2022/06/04 02:06:07;;;;;;;17.30;12.65;;;;;;;21.35;65.79;101663.13;4936187;29;20035;-87
2022/06/04 02:08:43;;;;;;;18.33;12.75;;;;;;;21.06;66.04;101623.25;4920248;29;20127;-87
2022/06/04 02:11:16;;;;;;;21.88;12.55;;;;;;;21.35;65.65;101669.22;4951879;29;20035;-88
2022/06/04 02:13:43;;;;;;;17.65;12.77;;;;;;;21.25;65.54;101665.59;4936242;29;20024;-88
2022/06/04 02:16:20;;;;;;;19.48;15.25;;;;;;;21.13;65.85;101658.63;4952315;29;20027;-87
2022/06/04 02:18:46;;;;;;;21.38;15.80;;;;;;;21.15;65.95;101662.84;4936126;29;20098;-87
2022/06/04 02:21:11;;;;;;;28.50;17.95;;;;;;;21.27;65.66;101671.63;4936026;29;20568;-87
2022/06/04 02:23:37;;;;;;;29.02;18.67;;;;;;;21.24;65.09;101637.63;4935282;29;20038;-88
2022/06/04 02:26:02;;;;;;;29.63;18.23;;;;;;;21.35;64.54;101642.91;4936002;29;20031;-86
2022/06/04 02:28:28;;;;;;;23.20;17.75;;;;;;;21.51;64.46;101653.06;4935915;29;20027;-88
2022/06/04 02:31:20;;;;;;;22.73;17.15;;;;;;;21.38;64.60;101639.19;4951815;29;20074;-86
2022/06/04 02:33:52;;;;;;;22.57;17.10;;;;;;;21.41;64.88;101636.31;4936594;29;20023;-87
2022/06/04 02:36:31;;;;;;;23.50;17.13;;;;;;;21.35;65.06;101635.00;4951754;29;20410;-88
2022/06/04 02:39:09;;;;;;;23.50;16.23;;;;;;;21.25;64.23;101623.50;4935491;29;20035;-87
2022/06/04 02:41:47;;;;;;;19.45;16.00;;;;;;;21.35;64.52;101648.19;4951705;29;20019;-88
2022/06/04 02:44:27;;;;;;;23.73;15.80;;;;;;;21.37;64.71;101664.69;4935639;29;20596;-89
2022/06/04 02:47:00;;;;;;;21.20;15.27;;;;;;;21.32;64.76;101666.81;4936795;29;20121;-87
2022/06/04 02:49:30;;;;;;;20.67;15.23;;;;;;;21.31;65.13;101667.78;4935770;29;20034;-88
2022/06/04 02:51:56;;;;;;;23.27;14.80;;;;;;;21.36;64.94;101676.16;4951587;29;20035;-87
2022/06/04 02:54:28;;;;;;;21.67;15.60;;;;;;;21.11;64.83;101626.34;4951322;29;20489;-88
2022/06/04 02:56:53;;;;;;;;;;;;;;;21.39;64.69;101673.28;4936300;29;20093;-87
2022/06/04 02:59:19;;;;;;;18.35;14.30;;;;;;;21.31;64.63;101664.31;4951790;29;20347;-87
2022/06/04 03:01:45;;;;;;;21.48;14.95;;;;;;;21.26;64.65;101645.41;4919721;29;20481;-88
2022/06/04 03:04:11;;;;;;;21.63;14.77;;;;;;;21.29;64.25;101653.91;4936028;29;20027;-87
2022/06/04 03:06:37;;;;;;;20.73;14.98;;;;;;;21.50;64.24;101675.09;4923580;29;20038;-86
2022/06/04 03:09:05;;;;;;;20.90;14.85;;;;;;;21.45;64.22;101653.56;4954759;29;20027;-87
2022/06/04 03:11:31;;;;;;;21.90;16.15;;;;;;;21.45;64.60;101667.56;4955351;29;20078;-87
2022/06/04 03:13:57;;;;;;;21.98;15.90;;;;;;;21.51;64.47;101673.28;4923513;29;20054;-89
2022/06/04 03:16:23;;;;;;;27.77;17.23;;;;;;;21.40;64.25;101653.91;4939490;29;20032;-87
2022/06/04 03:18:48;;;;;;;21.17;16.80;;;;;;;21.61;64.25;101680.34;4954972;29;20476;-87
2022/06/04 03:21:14;;;;;;;26.45;17.50;;;;;;;21.64;64.37;101682.75;4939121;29;20046;-88
2022/06/04 03:23:39;;;;;;;21.30;15.77;;;;;;;21.66;64.16;101675.56;4938683;29;20035;-89
2022/06/04 03:26:05;;;;;;;18.75;15.05;;;;;;;21.66;63.98;101672.09;4939073;29;20067;-87
2022/06/04 03:28:30;;;;;;;23.17;14.57;;;;;;;21.73;63.60;101681.19;4954999;29;20137;-89
2022/06/04 03:30:56;;;;;;;20.02;14.23;;;;;;;21.72;63.28;101671.59;4955047;29;20034;-89
2022/06/04 03:33:21;;;;;;;18.92;12.98;;;;;;;21.73;63.64;101687.28;4939053;29;20405;-87
2022/06/04 03:35:47;;;;;;;19.65;13.10;;;;;;;21.69;63.90;101691.09;4938915;29;20031;-87
2022/06/04 03:38:12;;;;;;;18.27;12.10;;;;;;;21.63;63.58;101664.41;4938652;29;20046;-88
2022/06/04 03:40:38;;;;;;;20.20;12.48;;;;;;;21.58;63.88;101662.16;4938820;29;20028;-88
2022/06/04 03:43:04;;;;;;;19.75;12.27;;;;;;;21.63;63.89;101667.91;4938822;29;20027;-87
2022/06/04 03:45:29;;;;;;;22.77;12.60;;;;;;;21.78;63.41;101689.53;4938767;29;20031;-89
2022/06/04 03:47:55;;;;;;;21.77;12.30;;;;;;;21.74;63.25;101682.84;4938492;29;20505;-88
2022/06/04 03:50:21;;;;;;;18.05;12.70;;;;;;;21.62;63.13;101671.47;4938723;29;20034;-87
2022/06/04 03:52:46;;;;;;;16.80;11.90;;;;;;;21.63;64.06;101672.31;4938285;29;20027;-89
2022/06/04 03:55:12;;;;;;;19.35;12.60;;;;;;;21.70;63.49;101687.50;4938727;29;20409;-87
2022/06/04 03:57:41;;;;;;;17.83;12.48;;;;;;;21.70;63.76;101684.88;4922653;29;20477;-89
2022/06/04 04:00:10;;;;;;;22.75;12.75;;;;;;;21.55;63.85;101670.31;4954504;29;20035;-88
2022/06/04 04:02:36;;;;;;;18.50;13.13;;;;;;;21.76;63.90;101700.22;4955296;29;20087;-87
2022/06/04 04:05:05;;;;;;;21.65;13.50;;;;;;;21.72;63.74;101682.13;4938428;29;20031;-87
2022/06/04 04:07:31;;;;;;;16.38;12.85;;;;;;;21.84;63.73;101702.25;4922891;29;20024;-88
2022/06/04 04:09:57;;;;;;;19.33;12.25;;;;;;;21.82;62.95;101685.69;4938451;29;20034;-88
2022/06/04 04:12:22;;;;;;;18.52;12.43;;;;;;;21.96;63.32;101710.97;4938249;29;20035;-87
2022/06/04 04:14:48;;;;;;;19.98;12.77;;;;;;;21.97;63.44;101702.94;4938231;29;20042;-89
2022/06/04 04:17:13;;;;;;;16.83;12.73;;;;;;;21.91;62.94;101674.44;4937770;29;20035;-88
2022/06/04 04:19:39;;;;;;;18.85;13.25;;;;;;;22.08;62.90;101694.19;4937550;29;20036;-88
2022/06/04 04:22:04;;;;;;;29.58;17.75;;;;;;;22.09;61.88;101682.69;4922242;29;20032;-86
2022/06/04 04:24:30;;;;;;;19.40;14.98;;;;;;;22.02;62.29;101673.56;4938065;29;20034;-86
2022/06/04 04:26:55;;;;;;;22.98;15.07;;;;;;;22.12;62.45;101685.06;4937998;29;20496;-88
2022/06/04 04:29:21;;;;;;;24.48;15.88;;;;;;;22.19;62.41;101693.31;4938004;29;20031;-88
2022/06/04 04:31:46;;;;;;;24.17;15.93;;;;;;;22.14;62.95;101704.25;4938320;29;20062;-88
2022/06/04 04:34:12;;;;;;;22.30;15.63;;;;;;;22.26;62.05;101708.53;4937660;29;20473;-88
2022/06/04 04:36:37;;;;;;;25.63;15.27;;;;;;;22.17;62.25;101708.44;4937775;29;20597;-89
2022/06/04 04:39:02;;;;;;;18.80;14.05;;;;;;;22.25;61.99;101719.19;4953730;29;20106;-87
2022/06/04 04:41:28;;;;;;;18.83;14.13;;;;;;;22.38;61.80;101719.84;4937654;29;20061;-88
2022/06/04 04:43:53;;;;;;;20.45;15.30;;;;;;;22.39;61.97;101716.25;4921833;29;20086;-87
2022/06/04 04:46:19;;;;;;;22.17;15.60;;;;;;;22.35;61.69;101719.28;4937449;29;20031;-88
2022/06/04 04:48:45;;;;;;;19.90;14.95;;;;;;;22.39;61.77;101718.91;4921305;29;20035;-87
2022/06/04 04:51:12;;;;;;;22.90;15.55;;;;;;;22.36;61.64;101718.31;4921750;29;20035;-88
2022/06/04 04:53:38;;;;;;;21.50;15.73;;;;;;;22.35;61.74;101712.22;4921805;29;20054;-88
2022/06/04 04:56:03;;;;;;;21.60;15.95;;;;;;;22.51;61.21;101725.78;4921693;29;20485;-87
2022/06/04 04:58:29;;;;;;;22.35;16.05;;;;;;;22.44;61.28;101706.19;4953420;29;20031;-87
2022/06/04 05:00:54;;;;;;;23.75;16.30;;;;;;;22.58;61.33;101721.69;4921620;29;20027;-87
2022/06/04 05:03:20;;;;;;;22.48;17.60;;;;;;;22.64;61.33;101725.66;4921257;29;20039;-87
2022/06/04 05:05:45;;;;;;;25.88;17.13;;;;;;;22.55;61.62;101697.41;4937294;29;20488;-87
2022/06/04 05:08:11;;;;;;;23.45;16.48;;;;;;;22.68;61.83;101705.13;4953187;29;20038;-88
2022/06/04 05:10:36;;;;;;;25.90;15.98;;;;;;;22.85;60.47;101715.16;4921462;29;20031;-88
2022/06/04 05:13:02;;;;;;;25.58;16.13;;;;;;;22.58;60.47;101705.88;4937025;29;20481;-87
2022/06/04 05:15:27;;;;;;;21.77;14.98;;;;;;;22.74;60.84;101707.25;4937097;29;20023;-87
2022/06/04 05:17:52;;;;;;;23.02;16.52;;;;;;;22.71;60.42;101694.31;4920923;29;20042;-86
2022/06/04 05:20:18;;;;;;;21.35;15.40;;;;;;;22.84;60.39;101695.00;4937006;29;20059;-87
2022/06/04 05:22:43;;;;;;;20.15;14.93;;;;;;;22.94;59.76;101698.53;4936883;29;20031;-88
2022/06/04 05:25:09;;;;;;;24.85;15.70;;;;;;;23.12;60.08;101697.00;4953286;29;20039;-88
2022/06/04 05:27:35;;;;;;;22.27;15.43;;;;;;;23.28;58.86;101698.31;4935941;29;20031;-87
2022/06/04 05:30:00;;;;;;;23.23;15.13;;;;;;;23.17;59.44;101686.84;4920312;29;20059;-86
2022/06/04 05:32:26;;;;;;;21.17;15.48;;;;;;;23.24;58.92;101689.81;4933729;29;20050;-86
2022/06/04 05:34:51;;;;;;;26.80;16.98;;;;;;;23.16;58.60;101701.03;4932692;29;20477;-87
2022/06/04 05:37:17;;;;;;;27.25;16.48;;;;;;;23.21;58.58;101689.25;4932090;29;20437;-87
2022/06/04 05:39:42;;;;;;;25.23;15.48;;;;;;;23.39;58.01;101700.84;4933456;29;20038;-88
2022/06/04 05:42:08;;;;;;;24.00;15.73;;;;;;;23.36;57.49;101704.59;4931052;29;20405;-86
2022/06/04 05:44:34;;;;;;;23.17;15.40;;;;;;;23.47;57.47;101701.03;4917359;29;20032;-88
2022/06/04 05:46:59;;;;;;;22.75;16.20;;;;;;;23.63;57.11;101696.13;4916781;29;20559;-86
2022/06/04 05:49:25;;;;;;;20.90;16.08;;;;;;;23.66;56.67;101669.44;4917292;29;20039;-86
2022/06/04 05:51:51;;;;;;;21.23;16.33;;;;;;;23.84;56.68;101687.28;4901726;29;20111;-87
2022/06/04 05:54:17;;;;;;;23.50;16.35;;;;;;;23.76;57.08;101669.47;4917452;29;20066;-87
2022/06/04 05:56:43;;;;;;;25.73;16.08;;;;;;;23.74;56.51;101661.69;4917255;29;20062;-86
2022/06/04 05:59:11;;;;;;;22.55;15.23;;;;;;;23.88;55.83;101683.41;4916933;29;20063;-88
2022/06/04 06:01:40;;;;;;;23.98;15.38;;;;;;;23.63;56.18;101658.31;4917357;29;20036;-86
2022/06/04 06:04:07;;;;;;;21.20;14.98;;;;;;;23.86;55.98;101685.34;4917637;29;20038;-87
2022/06/04 06:06:33;;;;;;;21.58;15.55;;;;;;;23.87;55.36;101676.44;4917181;29;20107;-85
2022/06/04 06:09:03;;;;;;;24.75;15.60;;;;;;;23.87;55.34;101677.28;4916786;29;20122;-86
2022/06/04 06:11:29;;;;;;;22.23;14.93;;;;;;;23.87;55.98;101664.06;4917210;29;20059;-87
2022/06/04 06:13:54;;;;;;;21.35;15.38;;;;;;;23.87;56.06;101650.00;4901207;29;20153;-87
2022/06/04 06:16:22;;;;;;;20.83;15.02;;;;;;;23.92;56.12;101653.09;4900901;29;20028;-86
2022/06/04 06:18:47;;;;;;;20.08;15.10;;;;;;;23.85;56.26;101644.88;4917348;29;20027;-88
2022/06/04 06:21:18;;;;;;;22.58;15.20;;;;;;;23.92;56.82;101647.81;4916626;29;20059;-88
2022/06/04 06:23:43;;;;;;;21.85;15.38;;;;;;;24.00;56.67;101646.16;4917100;29;20054;-87
2022/06/04 06:26:14;;;;;;;20.48;15.38;;;;;;;23.94;56.83;101645.88;4916594;29;20489;-86
2022/06/04 06:28:39;;;;;;;20.45;15.77;;;;;;;23.86;56.51;101637.78;4917209;29;20127;-87
2022/06/04 06:31:05;;;;;;;23.60;15.40;;;;;;;23.88;56.71;101630.53;4931930;29;20032;-87
2022/06/04 06:33:30;;;;;;;26.40;15.57;;;;;;;23.84;57.06;101631.81;4932604;29;20058;-86
2022/06/04 06:35:57;;;;;;;21.17;15.77;;;;;;;23.78;57.31;101614.69;4916684;29;20054;-88
2022/06/04 06:38:22;;;;;;;25.98;16.00;;;;;;;23.97;57.69;101635.84;4900817;29;20047;-86
2022/06/04 06:40:48;;;;;;;24.67;16.55;;;;;;;23.94;57.39;101619.44;4900536;29;20414;-87
2022/06/04 06:43:13;;;;;;;23.70;16.45;;;;;;;23.91;57.75;101622.38;4900772;29;20040;-87
2022/06/04 06:45:41;;;;;;;26.38;16.60;;;;;;;23.99;57.60;101617.19;4916637;29;20383;-88
2022/06/04 06:48:07;;;;;;;25.30;16.02;;;;;;;23.83;57.69;101595.78;4932277;29;20052;-88
2022/06/04 06:50:33;;;;;;;25.42;17.42;;;;;;;23.86;57.78;101604.25;4916837;29;20107;-86
2022/06/04 06:52:59;;;;;;;23.98;15.80;;;;;;;23.75;58.22;101599.94;4916673;29;20123;-86
2022/06/04 06:55:25;;;;;;;38.20;24.15;;;;;;;23.91;58.53;101614.44;4900692;29;20030;-87
2022/06/04 06:57:50;;;;;;;25.98;17.65;;;;;;;23.96;58.35;101622.78;4916538;29;20027;-87
2022/06/04 07:00:16;;;;;;;22.30;16.60;;;;;;;24.00;58.80;101613.59;4916223;29;20031;-87
2022/06/04 07:02:42;;;;;;;23.27;16.30;;;;;;;24.03;58.81;101608.03;4916616;29;20493;-87
2022/06/04 07:05:08;;;;;;;26.08;16.13;;;;;;;24.19;58.46;101629.47;4900610;29;20490;-88
2022/06/04 07:07:33;;;;;;;27.63;16.50;;;;;;;24.19;58.08;101618.06;4932636;29;20098;-88
2022/06/04 07:09:59;;;;;;;27.70;16.30;;;;;;;24.29;58.25;101630.31;4916187;29;20497;-87
2022/06/04 07:12:24;;;;;;;22.83;16.38;;;;;;;24.24;58.28;101627.22;4916289;29;20493;-87
2022/06/04 07:14:50;;;;;;;23.05;16.33;;;;;;;24.30;57.80;101628.50;4900392;29;20043;-87
2022/06/04 07:17:15;;;;;;;22.48;16.40;;;;;;;24.30;57.99;101631.97;4900708;29;20028;-89
2022/06/04 07:19:41;;;;;;;23.70;17.02;;;;;;;24.39;57.61;101632.16;4916577;29;20094;-88
2022/06/04 07:22:06;;;;;;;21.02;15.55;;;;;;;24.35;56.34;101617.50;4900586;29;20024;-88
2022/06/04 07:24:32;;;;;;;23.35;15.45;;;;;;;24.31;56.21;101615.16;4932306;29;20086;-88
2022/06/04 07:26:58;;;;;;;22.20;15.57;;;;;;;24.51;56.33;101617.78;4916049;29;20031;-88
2022/06/04 07:29:23;;;;;;;22.05;15.18;;;;;;;24.65;55.78;101617.34;4915472;29;20036;-88
2022/06/04 07:31:49;;;;;;;19.67;15.15;;;;;;;24.60;56.00;101586.03;4900232;29;20028;-88
2022/06/04 07:34:14;;;;;;;24.98;14.82;;;;;;;24.54;56.11;101591.03;4916144;29;20027;-87
2022/06/04 07:36:42;;;;;;;23.70;15.38;;;;;;;24.81;56.54;101606.16;4900517;29;20126;-88
2022/06/04 07:39:09;;;;;;;19.88;14.95;;;;;;;24.94;55.88;101600.53;4900795;29;20040;-89
2022/06/04 07:41:36;;;;;;;19.38;14.65;;;;;;;24.93;55.80;101570.59;4916356;29;20602;-88
2022/06/04 07:44:01;;;;;;;20.15;15.52;;;;;;;25.22;55.38;101583.72;4916079;29;20508;-87
2022/06/04 07:46:28;;;;;;;20.58;14.93;;;;;;;25.34;54.65;101579.91;4932025;29;20047;-88
2022/06/04 07:49:00;;;;;;;20.33;14.60;;;;;;;25.42;54.16;101592.41;4915995;29;20028;-88
2022/06/04 07:51:25;;;;;;;21.70;14.53;;;;;;;25.56;53.98;101594.53;4917794;29;20057;-88
2022/06/04 07:53:50;;;;;;;19.55;14.63;;;;;;;25.61;53.38;101594.09;4919424;29;20634;-89
2022/06/04 07:56:17;;;;;;;18.65;14.15;;;;;;;25.65;53.41;101596.28;4919821;29;20082;-87
2022/06/04 07:58:43;;;;;;;22.85;14.82;;;;;;;25.63;53.04;101584.19;4919373;29;20067;-89
2022/06/04 08:01:09;;;;;;;19.48;14.88;;;;;;;25.65;52.99;101582.22;4903770;29;20457;-87
2022/06/04 08:03:35;;;;;;;25.38;16.20;;;;;;;25.71;52.71;101581.66;4919411;29;20027;-89
2022/06/04 08:06:01;;;;;;;20.25;14.35;;;;;;;25.65;52.42;101592.81;4903757;29;20489;-88
2022/06/04 08:08:27;;;;;;;21.02;14.77;;;;;;;25.56;52.90;101591.06;4951066;29;20031;-88
2022/06/04 08:10:52;;;;;;;22.60;15.20;;;;;;;25.69;53.11;101602.97;4919137;29;20477;-90
2022/06/04 08:15:49;;;;;;;19.50;15.60;;;;;;;25.74;53.42;101597.25;4920060;29;20075;-88
2022/06/04 08:18:15;;;;;;;21.92;14.93;;;;;;;25.77;53.20;101598.78;4903429;29;20275;-86
2022/06/04 08:20:44;;;;;;;20.48;15.65;;;;;;;25.79;52.21;101608.25;4903551;29;20031;-87
2022/06/04 08:23:10;;;;;;;20.73;15.70;;;;;;;25.69;53.24;101615.41;4919152;29;20027;-88
2022/06/04 08:25:47;;;;;;;24.13;15.55;;;;;;;25.62;53.38;101588.66;4903180;29;20409;-87
2022/06/04 08:28:14;;;;;;;21.17;15.38;;;;;;;25.81;53.83;101611.56;4934090;29;20039;-89
2022/06/04 08:30:40;;;;;;;25.10;15.63;;;;;;;25.76;53.45;101589.97;4919225;29;20094;-88
2022/06/04 08:33:05;;;;;;;25.42;16.17;;;;;;;25.93;53.16;101609.53;4918800;29;20438;-87
2022/06/04 08:35:31;;;;;;;22.05;16.40;;;;;;;25.73;53.27;101590.28;4903082;29;20039;-88
2022/06/04 08:37:56;;;;;;;23.55;16.27;;;;;;;25.65;53.63;101606.91;4934690;29;20493;-87
2022/06/04 08:40:21;;;;;;;22.13;15.95;;;;;;;25.69;54.00;101600.34;4918903;29;20032;-87
2022/06/04 08:43:06;;;;;;;23.75;16.05;;;;;;;25.65;54.80;101582.22;4934088;29;20087;-88
2022/06/04 08:45:32;;;;;;;22.00;15.85;;;;;;;25.63;54.35;101578.88;4918994;29;20107;-86
2022/06/04 08:47:57;;;;;;;21.70;16.38;;;;;;;25.65;53.90;101595.47;4918321;29;20498;-86
2022/06/04 08:50:24;;;;;;;23.98;15.52;;;;;;;25.66;54.86;101602.44;4918605;29;20034;-88
2022/06/04 08:53:01;;;;;;;21.65;15.68;;;;;;;25.60;54.90;101597.75;4918791;29;20063;-88
2022/06/04 08:58:54;;;;;;;22.73;15.43;;;;;;;25.67;54.83;101590.88;4947649;29;20589;-88
2022/06/04 09:01:40;;;;;;;19.08;15.45;;;;;;;25.55;55.58;101586.75;4934215;29;20031;-87
2022/06/04 09:04:37;;;;;;;23.23;16.33;;;;;;;25.63;54.73;101602.72;4918644;29;20027;-87
2022/06/04 09:07:12;;;;;;;21.90;16.40;;;;;;;25.68;55.26;101605.78;4934020;29;20449;-87
2022/06/04 09:09:42;;;;;;;24.95;16.92;;;;;;;25.76;55.08;101602.41;4917712;29;20039;-88
2022/06/04 09:12:28;;;;;;;27.10;16.90;;;;;;;25.78;55.15;101593.34;4918266;29;20204;-87
2022/06/04 09:15:15;;;;;;;24.35;16.40;;;;;;;25.92;53.81;101595.44;4934114;29;20036;-87
2022/06/04 09:17:50;;;;;;;21.77;16.55;;;;;;;25.98;54.08;101596.66;4933849;29;20031;-88
2022/06/04 09:20:19;;;;;;;26.88;16.98;;;;;;;26.07;53.27;101597.56;4903592;29;20504;-87
2022/06/04 09:22:47;;;;;;;23.83;17.40;;;;;;;26.02;53.86;101601.50;4918315;29;20485;-87
2022/06/04 09:25:14;;;;;;;26.23;17.80;;;;;;;26.10;54.21;101599.91;4917564;29;20409;-88
2022/06/04 09:27:59;;;;;;;23.15;17.60;;;;;;;26.16;53.89;101594.00;4917776;29;20099;-88
2022/06/04 09:30:44;;;;;;;20.98;17.23;;;;;;;26.02;53.78;101590.91;4933743;29;20079;-88
2022/06/04 09:33:38;;;;;;;25.65;17.70;;;;;;;26.01;53.68;101591.88;4918523;29;20087;-90
2022/06/04 09:36:04;;;;;;;24.27;17.95;;;;;;;25.98;54.08;101584.25;4933752;29;20042;-89
2022/06/04 09:38:31;;;;;;;26.92;18.50;;;;;;;25.92;54.79;101578.72;4917513;29;20032;-89
2022/06/04 09:41:05;;;;;;;25.30;18.10;;;;;;;25.89;54.91;101579.03;4933406;29;20564;-88
2022/06/04 09:43:31;;;;;;;27.42;18.20;;;;;;;26.12;53.93;101579.38;4917941;29;20031;-88
2022/06/04 09:46:01;;;;;;;24.60;17.80;;;;;;;26.12;53.09;101563.47;4917424;29;20031;-87
2022/06/04 09:48:50;;;;;;;23.08;16.38;;;;;;;26.28;53.59;101568.91;4902257;29;20078;-87
2022/06/04 09:51:21;;;;;;;20.50;15.90;;;;;;;26.39;53.44;101560.72;4943719;29;20091;-89
2022/06/04 09:53:48;;;;;;;25.83;17.02;;;;;;;26.48;53.49;101554.47;4917217;29;20027;-87
2022/06/04 09:56:16;;;;;;;28.30;16.63;;;;;;;26.42;53.87;101533.88;4917660;29;20027;-88
2022/06/04 09:58:46;;;;;;;23.95;16.60;;;;;;;26.67;53.30;101548.13;4901810;29;20032;-89
2022/06/04 10:01:14;;;;;;;21.15;16.58;;;;;;;26.75;53.11;101555.31;4917494;29;20438;-88
2022/06/04 10:03:40;;;;;;;26.25;17.35;;;;;;;26.73;52.34;101554.59;4934235;29;20028;-88
2022/06/04 10:06:08;;;;;;;21.63;16.80;;;;;;;26.75;52.96;101557.97;4917055;29;20458;-88
2022/06/04 10:11:21;;;;;;;22.55;17.33;;;;;;;26.53;52.35;101503.59;4919986;29;20042;-88
2022/06/04 10:13:51;;;;;;;26.08;16.98;;;;;;;26.74;52.43;101549.13;4900725;29;20043;-88
2022/06/04 10:16:16;;;;;;;24.50;17.58;;;;;;;26.76;52.87;101551.66;4901866;29;20457;-89
2022/06/04 10:19:24;;;;;;;24.70;17.88;;;;;;;26.75;53.40;101542.03;4934055;29;20024;-88
2022/06/04 10:22:04;;;;;;;23.30;18.13;;;;;;;26.58;52.71;101536.63;4911733;29;20044;-89
2022/06/04 10:24:31;;;;;;;22.58;17.60;;;;;;;26.58;53.18;101547.25;4933060;29;20086;-87
2022/06/04 10:27:22;;;;;;;25.10;17.55;;;;;;;26.68;53.64;101548.97;4917166;29;20027;-88
2022/06/04 10:30:06;;;;;;;24.48;17.60;;;;;;;26.77;53.23;101548.00;4933878;29;20032;-88
2022/06/04 10:32:43;;;;;;;23.38;16.92;;;;;;;26.74;53.72;101543.00;4932392;29;20023;-88
2022/06/04 10:35:16;;;;;;;22.85;16.58;;;;;;;26.85;53.49;101540.09;4933680;29;20131;-88
2022/06/04 10:38:09;;;;;;;23.25;17.45;;;;;;;26.88;53.56;101540.59;4932597;29;20038;-89
2022/06/04 10:41:03;;;;;;;24.80;16.55;;;;;;;26.93;52.49;101541.94;4933655;29;20042;-87
2022/06/04 10:43:55;;;;;;;25.10;17.23;;;;;;;26.81;52.42;101517.50;4918027;29;20116;-87
2022/06/04 10:46:39;;;;;;;25.73;17.30;;;;;;;26.93;52.14;101537.44;4932480;29;20039;-87
2022/06/04 10:49:39;;;;;;;21.52;16.75;;;;;;;26.98;53.04;101539.63;4932315;29;20572;-87
2022/06/04 10:52:38;;;;;;;22.55;17.40;;;;;;;27.06;52.89;101529.91;4933374;29;20079;-87
2022/06/04 10:55:21;;;;;;;24.15;16.67;;;;;;;27.09;53.08;101518.97;4933811;29;20438;-87
2022/06/04 10:58:14;;;;;;;26.27;18.05;;;;;;;27.26;52.92;101524.34;4932240;29;20035;-88
2022/06/04 11:00:47;;;;;;;19.50;16.90;;;;;;;27.31;53.07;101522.00;4933614;29;20039;-88
2022/06/04 11:03:41;;;;;;;26.20;17.92;;;;;;;27.36;51.66;101520.53;4916609;29;20027;-89
2022/06/04 11:06:14;;;;;;;22.80;16.42;;;;;;;27.39;51.51;101508.75;4930895;29;20046;-88
2022/06/04 11:08:47;;;;;;;19.73;15.80;;;;;;;27.55;51.06;101515.91;4932176;29;20076;-87
2022/06/04 11:11:24;;;;;;;22.30;15.82;;;;;;;27.60;51.18;101514.41;4916415;29;20542;-88
2022/06/04 11:13:52;;;;;;;21.10;16.65;;;;;;;27.62;50.46;101509.75;4917524;29;20034;-87
2022/06/04 11:16:24;;;;;;;23.50;16.38;;;;;;;27.69;50.57;101497.50;4900602;29;20046;-87
2022/06/04 11:18:52;;;;;;;23.77;16.30;;;;;;;27.84;50.73;101499.53;4917049;29;20032;-89
2022/06/04 11:21:32;;;;;;;18.25;15.57;;;;;;;27.90;50.56;101501.50;4932856;29;20039;-89
2022/06/04 11:24:13;;;;;;;26.25;17.95;;;;;;;28.03;51.02;101498.34;4917661;29;20027;-89
2022/06/04 11:26:43;;;;;;;23.23;16.35;;;;;;;27.84;51.01;101495.03;4934912;29;20028;-88
2022/06/04 11:29:09;;;;;;;22.52;16.73;;;;;;;27.81;51.09;101492.69;4904485;29;20028;-89
2022/06/04 11:31:56;;;;;;;23.38;15.93;;;;;;;27.84;50.81;101488.88;4919972;29;20032;-88
2022/06/04 11:34:38;;;;;;;24.17;16.23;;;;;;;27.84;51.07;101471.09;4937106;29;20059;-88
2022/06/04 11:37:06;;;;;;;20.88;15.82;;;;;;;27.92;50.73;101470.25;4920640;29;20498;-88
2022/06/04 11:40:04;;;;;;;21.45;15.60;;;;;;;28.00;51.83;101467.56;4936781;29;20107;-88
2022/06/04 11:42:41;;;;;;;18.85;14.88;;;;;;;28.02;50.55;101465.56;4935433;29;20047;-88